Time;durP1;ratioP1;P1;durP2;ratioP2;P2;SDS_P1;SDS_P2;PMS_P1;PMS_P2;Temp;Humidity;BMP_temperature;BMP_pressure;BME280_temperature;BME280_humidity;BME280_pressure;Samples;Min_cycle;Max_cycle;Signal;HPM_P1;HPM_P2
2022/12/31 00:03:51;;;;;;;36.30;16.70;;;;;;;6.02;100.00;99968.73;651680;1304;139092;-81
2022/12/31 00:19:00;;;;;;;33.00;16.70;;;;;;;6.11;100.00;99932.81;649307;1298;139458;-82
2022/12/31 00:34:04;;;;;;;30.50;15.10;;;;;;;6.16;100.00;99902.04;651295;1307;140335;-80
2022/12/31 00:49:08;;;;;;;29.70;16.30;;;;;;;6.27;100.00;99888.05;652669;1293;138588;-80
2022/12/31 01:04:15;;;;;;;33.70;15.50;;;;;;;6.43;100.00;99871.89;653253;1311;138583;-81
2022/12/31 01:22:58;;;;;;;27.90;17.60;;;;;;;6.45;100.00;99865.63;634806;1341;544826;-79
2022/12/31 01:38:02;;;;;;;35.00;16.60;;;;;;;6.48;99.99;99839.82;648564;1314;139675;-80
2022/12/31 01:53:09;;;;;;;31.90;18.40;;;;;;;6.50;99.93;99832.58;651478;1317;138424;-81
2022/12/31 02:08:12;;;;;;;39.40;19.40;;;;;;;6.57;99.90;99824.89;647264;1315;138314;-80
2022/12/31 02:23:28;;;;;;;31.10;17.60;;;;;;;6.65;99.74;99856.63;643613;1315;139489;-79
2022/12/31 02:38:37;;;;;;;36.00;19.00;;;;;;;6.70;99.38;99830.50;642580;1322;137851;-80
2022/12/31 02:54:03;;;;;;;30.10;17.60;;;;;;;6.83;99.67;99839.58;645833;1310;139587;-79
2022/12/31 03:09:12;;;;;;;32.60;17.20;;;;;;;7.15;98.63;99821.68;644983;1315;140010;-80
2022/12/31 03:39:37;;;;;;;36.30;18.20;;;;;;;7.54;97.14;99787.92;651202;1308;139668;-81
2022/12/31 03:54:40;;;;;;;29.80;17.50;;;;;;;7.81;95.97;99808.13;650352;1315;138732;-80
2022/12/31 04:09:43;;;;;;;32.50;16.30;;;;;;;7.91;95.36;99818.07;646729;1305;138884;-81
2022/12/31 04:24:47;;;;;;;29.60;15.80;;;;;;;7.85;98.65;99813.52;651626;1314;140381;-81
2022/12/31 04:39:50;;;;;;;29.10;16.20;;;;;;;7.59;100.00;99809.10;650779;1314;139792;-80
2022/12/31 04:54:53;;;;;;;30.10;15.40;;;;;;;7.58;100.00;99811.73;655504;1309;139132;-80
2022/12/31 05:09:56;;;;;;;28.40;16.70;;;;;;;7.72;100.00;99801.89;649146;1313;139397;-79
2022/12/31 05:24:59;;;;;;;29.00;15.00;;;;;;;7.83;100.00;99795.62;652032;1315;139721;-79
2022/12/31 05:40:04;;;;;;;25.60;14.10;;;;;;;8.01;100.00;99810.62;656536;1316;139695;-78
2022/12/31 05:55:07;;;;;;;25.30;15.40;;;;;;;8.21;100.00;99807.77;654627;1308;140126;-79
2022/12/31 06:10:11;;;;;;;24.60;12.20;;;;;;;8.33;100.00;99816.66;648822;1308;139682;-79
2022/12/31 06:25:14;;;;;;;21.70;13.20;;;;;;;8.45;100.00;99815.63;655604;1310;138534;-79
2022/12/31 06:40:17;;;;;;;24.20;13.40;;;;;;;8.49;100.00;99826.58;653033;1311;139053;-80
2022/12/31 06:55:21;;;;;;;33.40;20.90;;;;;;;8.57;100.00;99841.58;651953;1304;139462;-78
2022/12/31 07:10:52;;;;;;;18.60;10.50;;;;;;;8.80;100.00;99857.45;651771;1308;139549;-81
2022/12/31 07:26:23;;;;;;;22.30;12.00;;;;;;;8.95;100.00;99872.89;651605;1311;139047;-80
2022/12/31 07:41:51;;;;;;;17.30;9.80;;;;;;;9.08;100.00;99871.34;652120;1311;138545;-80
2022/12/31 07:56:55;;;;;;;15.40;9.40;;;;;;;9.24;100.00;99887.25;652701;1290;138311;-79
2022/12/31 08:14:47;;;;;;;14.60;9.00;;;;;;;9.53;100.00;99885.50;634611;1328;544875;-80
2022/12/31 08:30:19;;;;;;;14.60;8.50;;;;;;;9.71;100.00;99891.95;645532;1304;140187;-80
2022/12/31 08:49:00;;;;;;;16.70;8.90;;;;;;;10.23;100.00;99896.85;643265;1343;544777;-80
2022/12/31 09:04:11;;;;;;;14.90;8.60;;;;;;;10.37;100.00;99890.44;646966;1317;138926;-80
2022/12/31 09:19:15;;;;;;;13.60;7.30;;;;;;;10.58;100.00;99891.13;641485;1308;138302;-81
2022/12/31 09:34:24;;;;;;;15.70;8.20;;;;;;;10.67;100.00;99890.14;643221;1307;138676;-80
2022/12/31 09:49:30;;;;;;;23.10;11.90;;;;;;;10.70;100.00;99872.86;645352;1315;138177;-80
2022/12/31 10:04:49;;;;;;;35.00;17.30;;;;;;;10.54;100.00;99853.63;644487;1323;138606;-81
2022/12/31 10:20:12;;;;;;;34.90;22.20;;;;;;;10.60;100.00;99820.02;640550;1312;138506;-82
2022/12/31 10:35:34;;;;;;;27.00;14.50;;;;;;;10.61;100.00;99798.05;645981;1309;139331;-80
2022/12/31 10:50:44;;;;;;;20.90;16.40;;;;;;;10.66;100.00;99775.17;645278;1323;138769;-78
2022/12/31 11:06:25;;;;;;;23.70;13.00;;;;;;;10.76;100.00;99756.32;643644;1307;139370;-78
2022/12/31 11:22:05;;;;;;;19.90;11.60;;;;;;;10.65;100.00;99755.71;639987;1313;140551;-78
2022/12/31 11:37:23;;;;;;;19.70;14.70;;;;;;;10.58;100.00;99724.67;646034;1307;138548;-79
2022/12/31 11:52:49;;;;;;;29.40;18.00;;;;;;;10.71;100.00;99707.51;643582;1323;140093;-79
2022/12/31 12:07:53;;;;;;;28.80;17.90;;;;;;;10.82;100.00;99676.73;647421;1313;138720;-79
2022/12/31 12:22:59;;;;;;;27.10;17.80;;;;;;;11.02;100.00;99669.66;637948;1314;139320;-78
2022/12/31 12:38:05;;;;;;;44.40;20.20;;;;;;;11.26;100.00;99653.68;645852;1315;139936;-78
2022/12/31 12:53:46;;;;;;;17.50;12.70;;;;;;;11.73;100.00;99645.84;642167;1307;141867;-78
2022/12/31 13:09:08;;;;;;;13.40;8.70;;;;;;;12.00;100.00;99641.02;640989;1307;139698;-78
2022/12/31 13:24:24;;;;;;;15.60;8.80;;;;;;;12.24;100.00;99649.20;641554;1315;142900;-78
2022/12/31 13:39:32;;;;;;;13.30;7.50;;;;;;;12.58;100.00;99647.30;642798;1321;140853;-80
2022/12/31 13:54:38;;;;;;;13.50;8.90;;;;;;;12.81;100.00;99663.06;645201;1314;139510;-80
2022/12/31 14:09:42;;;;;;;16.00;10.10;;;;;;;13.14;100.00;99670.97;648325;1308;139581;-80
2022/12/31 14:24:49;;;;;;;10.80;7.20;;;;;;;13.32;100.00;99671.11;646733;1308;140863;-80
2022/12/31 14:40:40;;;;;;;10.70;6.00;;;;;;;13.60;100.00;99665.43;648824;1297;139115;-81
2022/12/31 14:55:43;;;;;;;9.90;5.90;;;;;;;13.86;100.00;99676.73;648051;1299;138586;-80
2022/12/31 15:10:55;;;;;;;19.60;9.20;;;;;;;14.06;100.00;99677.72;652257;1307;138841;-78
2022/12/31 15:26:00;;;;;;;12.80;7.90;;;;;;;14.17;100.00;99689.18;651685;1301;140535;-80
2022/12/31 15:41:19;;;;;;;16.90;10.80;;;;;;;14.12;100.00;99685.91;652542;1298;140146;-80
2022/12/31 15:56:31;;;;;;;21.20;11.60;;;;;;;14.14;100.00;99704.61;652885;1299;139431;-79
2022/12/31 16:11:40;;;;;;;12.70;8.70;;;;;;;14.27;100.00;99716.52;654352;1288;139460;-81
2022/12/31 16:26:58;;;;;;;16.30;7.90;;;;;;;14.38;100.00;99721.15;648120;1299;138620;-81
2022/12/31 16:42:20;;;;;;;16.10;8.30;;;;;;;14.43;100.00;99709.11;652157;1301;139617;-80
2022/12/31 16:57:27;;;;;;;24.20;11.90;;;;;;;14.50;100.00;99741.02;650921;1299;139675;-79
2022/12/31 17:12:33;;;;;;;18.40;8.70;;;;;;;14.28;100.00;99773.08;650394;1284;139673;-79
2022/12/31 17:28:03;;;;;;;145.20;68.30;;;;;;;14.27;100.00;99796.59;651390;1299;139508;-81
2022/12/31 17:43:06;;;;;;;409.20;178.90;;;;;;;14.19;100.00;99808.40;653717;1307;140103;-78
2022/12/31 17:58:17;;;;;;;38.40;19.90;;;;;;;14.00;100.00;99806.41;652787;1299;139211;-78
2022/12/31 18:13:25;;;;;;;24.30;12.70;;;;;;;14.17;100.00;99819.15;649803;1297;141172;-78
2022/12/31 18:28:29;;;;;;;14.70;9.10;;;;;;;14.26;100.00;99822.38;648323;1285;140631;-80
2022/12/31 18:43:32;;;;;;;36.40;20.40;;;;;;;14.17;100.00;99790.23;651920;1295;139597;-78
2022/12/31 18:58:35;;;;;;;26.00;15.20;;;;;;;14.11;100.00;99787.91;654314;1305;139285;-79
2022/12/31 19:13:39;;;;;;;19.50;11.30;;;;;;;14.01;100.00;99800.02;649234;1300;139419;-79
2022/12/31 19:28:43;;;;;;;15.80;9.60;;;;;;;13.91;100.00;99800.30;650717;1302;139248;-80
2022/12/31 19:43:48;;;;;;;15.50;8.40;;;;;;;14.06;100.00;99783.02;652773;1307;139910;-78
2022/12/31 19:58:52;;;;;;;14.10;8.50;;;;;;;14.12;100.00;99785.53;657200;1302;138652;-79
2022/12/31 20:13:55;;;;;;;10.90;7.90;;;;;;;14.20;100.00;99786.59;651869;1306;139969;-79
2022/12/31 20:28:58;;;;;;;13.00;8.30;;;;;;;14.47;100.00;99783.30;649157;1306;140339;-79
2022/12/31 20:44:01;;;;;;;11.40;7.20;;;;;;;14.55;100.00;99781.67;647237;1292;141016;-79
2022/12/31 20:59:07;;;;;;;11.50;7.00;;;;;;;14.61;100.00;99783.96;650035;1297;140283;-80
2022/12/31 21:14:10;;;;;;;11.70;5.80;;;;;;;14.82;100.00;99778.77;652926;1314;140122;-82
2022/12/31 21:29:13;;;;;;;14.30;6.60;;;;;;;14.97;100.00;99764.81;652337;1300;139515;-80
2022/12/31 21:44:22;;;;;;;8.20;4.90;;;;;;;15.20;100.00;99779.75;650873;1314;138977;-81
2022/12/31 22:14:48;;;;;;;9.30;4.50;;;;;;;15.29;100.00;99770.14;649550;1315;139703;-79
2022/12/31 22:30:11;;;;;;;7.60;4.50;;;;;;;15.41;100.00;99769.89;654820;1309;139646;-79
2022/12/31 22:45:15;;;;;;;3.80;2.40;;;;;;;15.83;100.00;99776.89;650885;1315;139694;-78
2022/12/31 23:00:18;;;;;;;6.40;2.80;;;;;;;16.46;97.85;99767.34;650021;1291;139096;-78
2022/12/31 23:30:44;;;;;;;6.00;3.30;;;;;;;16.88;92.38;99779.12;646776;1299;139718;-80
2022/12/31 23:45:49;;;;;;;5.10;3.00;;;;;;;16.94;91.56;99772.92;649646;1294;141668;-80
